Terminal Aerodrome Forecast
Issued by NWS

Home | Current Version | Previous Version | Text Only | Print | Product List | Glossary On
Versions: 1 2 3 4 5 6 7 8 9 10 11 12 13 14 15 16 17
000
FTUS42 KTBW 272321
TAFPIE
TAF
KPIE 272321Z 2800/2824 08005KT P6SM VCSH SCT040 BKN100
     FM280300 06009KT P6SM SCT120 BKN200
     FM281500 08008KT P6SM FEW050 SCT250
     FM281800 08009KT P6SM VCTS SCT035CB BKN110=

USA.gov is the U.S. government's official web portal to all federal, state and local government web resources and services.